sensor_id;sensor_type;location;lat;lon;timestamp;temperature;humidity
53272;DHT22;39160;48.580;7.756;2023-04-15T00:01:38;12.10;66.10
53272;DHT22;39160;48.580;7.756;2023-04-15T00:06:28;11.90;66.50
53272;DHT22;39160;48.580;7.756;2023-04-15T00:11:33;11.90;67.40
53272;DHT22;39160;48.580;7.756;2023-04-15T00:16:24;11.60;66.70
53272;DHT22;39160;48.580;7.756;2023-04-15T00:21:15;11.40;67.10
53272;DHT22;39160;48.580;7.756;2023-04-15T00:26:06;11.20;67.30
53272;DHT22;39160;48.580;7.756;2023-04-15T00:30:56;11.20;67.20
53272;DHT22;39160;48.580;7.756;2023-04-15T00:35:47;11.40;67.30
53272;DHT22;39160;48.580;7.756;2023-04-15T00:40:38;11.30;67.50
53272;DHT22;39160;48.580;7.756;2023-04-15T00:45:29;11.30;67.80
53272;DHT22;39160;48.580;7.756;2023-04-15T00:50:20;11.30;67.60
53272;DHT22;39160;48.580;7.756;2023-04-15T00:55:11;11.20;68.20
53272;DHT22;39160;48.580;7.756;2023-04-15T01:00:02;11.00;68.70
53272;DHT22;39160;48.580;7.756;2023-04-15T01:04:55;11.10;68.50
53272;DHT22;39160;48.580;7.756;2023-04-15T01:09:46;11.20;68.50
53272;DHT22;39160;48.580;7.756;2023-04-15T01:14:37;11.20;68.40
53272;DHT22;39160;48.580;7.756;2023-04-15T01:19:28;11.10;68.50
53272;DHT22;39160;48.580;7.756;2023-04-15T01:24:18;11.10;68.40
53272;DHT22;39160;48.580;7.756;2023-04-15T01:29:09;11.00;68.70
53272;DHT22;39160;48.580;7.756;2023-04-15T01:34:00;11.00;68.70
53272;DHT22;39160;48.580;7.756;2023-04-15T01:38:50;10.90;69.00
53272;DHT22;39160;48.580;7.756;2023-04-15T01:43:41;10.90;69.00
53272;DHT22;39160;48.580;7.756;2023-04-15T01:48:32;10.90;68.90
53272;DHT22;39160;48.580;7.756;2023-04-15T01:53:24;10.80;69.00
53272;DHT22;39160;48.580;7.756;2023-04-15T01:58:15;10.80;69.30
53272;DHT22;39160;48.580;7.756;2023-04-15T02:03:05;10.80;69.50
53272;DHT22;39160;48.580;7.756;2023-04-15T02:07:56;10.80;69.60
53272;DHT22;39160;48.580;7.756;2023-04-15T02:12:47;10.80;69.70
53272;DHT22;39160;48.580;7.756;2023-04-15T02:17:38;10.60;70.10
53272;DHT22;39160;48.580;7.756;2023-04-15T02:22:28;10.50;70.50
53272;DHT22;39160;48.580;7.756;2023-04-15T02:27:19;10.40;70.80
53272;DHT22;39160;48.580;7.756;2023-04-15T02:32:12;10.40;71.20
53272;DHT22;39160;48.580;7.756;2023-04-15T02:37:03;10.20;71.70
53272;DHT22;39160;48.580;7.756;2023-04-15T02:41:53;10.30;71.80
53272;DHT22;39160;48.580;7.756;2023-04-15T02:46:45;10.30;71.90
53272;DHT22;39160;48.580;7.756;2023-04-15T02:51:41;10.30;72.10
53272;DHT22;39160;48.580;7.756;2023-04-15T02:56:32;10.30;72.40
53272;DHT22;39160;48.580;7.756;2023-04-15T03:01:22;10.30;72.70
53272;DHT22;39160;48.580;7.756;2023-04-15T03:06:13;10.40;72.70
53272;DHT22;39160;48.580;7.756;2023-04-15T03:11:04;10.30;73.00
53272;DHT22;39160;48.580;7.756;2023-04-15T03:15:55;10.30;73.30
53272;DHT22;39160;48.580;7.756;2023-04-15T03:20:45;10.30;73.70
53272;DHT22;39160;48.580;7.756;2023-04-15T03:25:36;10.30;74.00
53272;DHT22;39160;48.580;7.756;2023-04-15T03:30:27;10.30;74.10
53272;DHT22;39160;48.580;7.756;2023-04-15T03:35:18;10.30;74.30
53272;DHT22;39160;48.580;7.756;2023-04-15T03:40:09;10.20;74.30
53272;DHT22;39160;48.580;7.756;2023-04-15T03:44:59;10.10;75.00
53272;DHT22;39160;48.580;7.756;2023-04-15T03:49:50;10.20;74.90
53272;DHT22;39160;48.580;7.756;2023-04-15T03:54:41;10.20;75.10
53272;DHT22;39160;48.580;7.756;2023-04-15T03:59:31;10.30;75.20
53272;DHT22;39160;48.580;7.756;2023-04-15T04:04:22;10.20;75.40
53272;DHT22;39160;48.580;7.756;2023-04-15T04:09:13;10.10;75.70
53272;DHT22;39160;48.580;7.756;2023-04-15T04:14:03;10.20;75.80
53272;DHT22;39160;48.580;7.756;2023-04-15T04:18:54;10.20;75.80
53272;DHT22;39160;48.580;7.756;2023-04-15T04:23:45;10.20;75.80
53272;DHT22;39160;48.580;7.756;2023-04-15T04:28:35;10.30;76.00
53272;DHT22;39160;48.580;7.756;2023-04-15T04:33:26;10.30;76.20
53272;DHT22;39160;48.580;7.756;2023-04-15T04:38:17;10.30;76.30
53272;DHT22;39160;48.580;7.756;2023-04-15T04:43:07;10.30;76.50
53272;DHT22;39160;48.580;7.756;2023-04-15T04:47:58;10.20;76.80
53272;DHT22;39160;48.580;7.756;2023-04-15T04:52:49;10.10;77.50
53272;DHT22;39160;48.580;7.756;2023-04-15T04:57:40;10.20;77.30
53272;DHT22;39160;48.580;7.756;2023-04-15T05:02:31;10.10;77.50
53272;DHT22;39160;48.580;7.756;2023-04-15T05:07:22;10.20;77.80
53272;DHT22;39160;48.580;7.756;2023-04-15T05:12:13;10.20;77.90
53272;DHT22;39160;48.580;7.756;2023-04-15T05:17:04;10.40;77.90
53272;DHT22;39160;48.580;7.756;2023-04-15T05:21:55;10.30;78.30
53272;DHT22;39160;48.580;7.756;2023-04-15T05:26:45;10.30;78.40
53272;DHT22;39160;48.580;7.756;2023-04-15T05:31:36;10.50;78.30
53272;DHT22;39160;48.580;7.756;2023-04-15T05:36:27;10.40;78.60
53272;DHT22;39160;48.580;7.756;2023-04-15T05:41:18;10.40;79.00
53272;DHT22;39160;48.580;7.756;2023-04-15T05:46:08;10.40;79.20
53272;DHT22;39160;48.580;7.756;2023-04-15T05:50:59;10.50;79.50
53272;DHT22;39160;48.580;7.756;2023-04-15T05:55:50;10.60;79.50
53272;DHT22;39160;48.580;7.756;2023-04-15T06:00:41;10.60;79.70
53272;DHT22;39160;48.580;7.756;2023-04-15T06:05:31;10.70;80.00
53272;DHT22;39160;48.580;7.756;2023-04-15T06:10:22;10.70;80.00
53272;DHT22;39160;48.580;7.756;2023-04-15T06:15:13;10.80;79.90
53272;DHT22;39160;48.580;7.756;2023-04-15T06:20:04;10.80;79.70
53272;DHT22;39160;48.580;7.756;2023-04-15T06:24:55;10.90;79.70
53272;DHT22;39160;48.580;7.756;2023-04-15T06:29:46;11.00;79.70
53272;DHT22;39160;48.580;7.756;2023-04-15T06:34:36;10.90;80.00
53272;DHT22;39160;48.580;7.756;2023-04-15T06:39:27;10.80;79.90
53272;DHT22;39160;48.580;7.756;2023-04-15T06:44:17;10.60;81.30
53272;DHT22;39160;48.580;7.756;2023-04-15T06:49:08;10.50;82.00
53272;DHT22;39160;48.580;7.756;2023-04-15T06:53:59;10.30;83.00
53272;DHT22;39160;48.580;7.756;2023-04-15T06:58:49;10.50;83.00
53272;DHT22;39160;48.580;7.756;2023-04-15T07:03:40;10.50;83.10
53272;DHT22;39160;48.580;7.756;2023-04-15T07:08:32;10.70;83.00
53272;DHT22;39160;48.580;7.756;2023-04-15T07:13:23;10.60;83.60
53272;DHT22;39160;48.580;7.756;2023-04-15T07:18:13;10.70;84.50
53272;DHT22;39160;48.580;7.756;2023-04-15T07:23:04;11.10;83.50
53272;DHT22;39160;48.580;7.756;2023-04-15T07:27:54;11.10;83.70
53272;DHT22;39160;48.580;7.756;2023-04-15T07:32:45;11.00;84.10
53272;DHT22;39160;48.580;7.756;2023-04-15T07:37:36;11.10;84.00
53272;DHT22;39160;48.580;7.756;2023-04-15T07:42:27;11.10;83.90
53272;DHT22;39160;48.580;7.756;2023-04-15T07:47:18;11.40;83.60
53272;DHT22;39160;48.580;7.756;2023-04-15T07:52:09;11.50;83.20
53272;DHT22;39160;48.580;7.756;2023-04-15T07:57:00;11.70;82.90
53272;DHT22;39160;48.580;7.756;2023-04-15T08:01:50;11.90;82.60
53272;DHT22;39160;48.580;7.756;2023-04-15T08:06:41;12.10;82.20
53272;DHT22;39160;48.580;7.756;2023-04-15T08:11:32;12.20;82.00
53272;DHT22;39160;48.580;7.756;2023-04-15T08:16:24;12.20;82.10
53272;DHT22;39160;48.580;7.756;2023-04-15T08:21:16;12.30;82.10
53272;DHT22;39160;48.580;7.756;2023-04-15T08:26:07;12.50;81.70
53272;DHT22;39160;48.580;7.756;2023-04-15T08:30:58;12.60;81.60
53272;DHT22;39160;48.580;7.756;2023-04-15T08:35:48;12.70;81.40
53272;DHT22;39160;48.580;7.756;2023-04-15T08:40:41;12.80;81.30
53272;DHT22;39160;48.580;7.756;2023-04-15T08:45:32;12.60;82.00
53272;DHT22;39160;48.580;7.756;2023-04-15T08:50:24;12.50;82.80
53272;DHT22;39160;48.580;7.756;2023-04-15T08:55:15;12.50;83.00
53272;DHT22;39160;48.580;7.756;2023-04-15T09:00:06;12.60;82.80
53272;DHT22;39160;48.580;7.756;2023-04-15T09:04:58;12.70;82.70
53272;DHT22;39160;48.580;7.756;2023-04-15T09:09:49;12.80;82.50
53272;DHT22;39160;48.580;7.756;2023-04-15T09:14:41;12.90;82.50
53272;DHT22;39160;48.580;7.756;2023-04-15T09:19:31;13.10;82.40
53272;DHT22;39160;48.580;7.756;2023-04-15T09:24:34;13.10;82.40
53272;DHT22;39160;48.580;7.756;2023-04-15T09:29:26;13.40;82.20
53272;DHT22;39160;48.580;7.756;2023-04-15T09:34:18;13.30;82.40
53272;DHT22;39160;48.580;7.756;2023-04-15T09:39:08;13.40;82.40
53272;DHT22;39160;48.580;7.756;2023-04-15T09:43:59;13.60;82.10
53272;DHT22;39160;48.580;7.756;2023-04-15T09:49:06;13.70;82.10
53272;DHT22;39160;48.580;7.756;2023-04-15T09:53:58;14.00;82.00
53272;DHT22;39160;48.580;7.756;2023-04-15T09:58:55;14.20;81.50
53272;DHT22;39160;48.580;7.756;2023-04-15T10:03:46;14.20;81.60
53272;DHT22;39160;48.580;7.756;2023-04-15T10:08:37;14.40;81.40
53272;DHT22;39160;48.580;7.756;2023-04-15T10:13:31;14.50;81.30
53272;DHT22;39160;48.580;7.756;2023-04-15T10:18:28;14.80;80.80
53272;DHT22;39160;48.580;7.756;2023-04-15T10:23:22;14.70;80.80
53272;DHT22;39160;48.580;7.756;2023-04-15T10:28:15;14.70;80.50
53272;DHT22;39160;48.580;7.756;2023-04-15T10:33:08;14.70;80.40
53272;DHT22;39160;48.580;7.756;2023-04-15T10:37:59;14.90;80.00
53272;DHT22;39160;48.580;7.756;2023-04-15T10:42:49;14.90;79.50
53272;DHT22;39160;48.580;7.756;2023-04-15T10:47:42;15.20;79.40
53272;DHT22;39160;48.580;7.756;2023-04-15T10:52:33;15.40;79.20
53272;DHT22;39160;48.580;7.756;2023-04-15T10:57:23;15.30;78.70
53272;DHT22;39160;48.580;7.756;2023-04-15T11:02:14;15.30;78.80
53272;DHT22;39160;48.580;7.756;2023-04-15T11:07:05;15.50;78.60
53272;DHT22;39160;48.580;7.756;2023-04-15T11:12:06;15.70;78.10
53272;DHT22;39160;48.580;7.756;2023-04-15T11:16:58;15.70;77.30
53272;DHT22;39160;48.580;7.756;2023-04-15T11:21:48;15.80;77.20
53272;DHT22;39160;48.580;7.756;2023-04-15T11:26:39;15.80;75.60
53272;DHT22;39160;48.580;7.756;2023-04-15T11:31:30;15.90;75.60
53272;DHT22;39160;48.580;7.756;2023-04-15T11:36:23;16.20;74.70
53272;DHT22;39160;48.580;7.756;2023-04-15T11:41:20;16.40;73.80
53272;DHT22;39160;48.580;7.756;2023-04-15T11:46:11;16.60;72.50
53272;DHT22;39160;48.580;7.756;2023-04-15T11:51:06;16.90;72.10
53272;DHT22;39160;48.580;7.756;2023-04-15T11:55:57;17.20;71.30
53272;DHT22;39160;48.580;7.756;2023-04-15T12:00:52;17.10;70.80
53272;DHT22;39160;48.580;7.756;2023-04-15T12:10:58;17.60;69.30
53272;DHT22;39160;48.580;7.756;2023-04-15T12:15:48;17.30;69.20
53272;DHT22;39160;48.580;7.756;2023-04-15T12:20:45;17.00;69.30
53272;DHT22;39160;48.580;7.756;2023-04-15T12:25:36;17.40;68.60
53272;DHT22;39160;48.580;7.756;2023-04-15T12:30:27;17.70;68.10
53272;DHT22;39160;48.580;7.756;2023-04-15T12:35:18;18.20;68.20
53272;DHT22;39160;48.580;7.756;2023-04-15T12:40:10;18.30;67.40
53272;DHT22;39160;48.580;7.756;2023-04-15T12:45:01;18.20;67.00
53272;DHT22;39160;48.580;7.756;2023-04-15T12:49:52;18.50;66.70
53272;DHT22;39160;48.580;7.756;2023-04-15T12:54:43;18.20;65.60
53272;DHT22;39160;48.580;7.756;2023-04-15T12:59:34;18.20;65.00
53272;DHT22;39160;48.580;7.756;2023-04-15T13:04:25;18.20;64.60
53272;DHT22;39160;48.580;7.756;2023-04-15T13:09:19;19.00;64.10
53272;DHT22;39160;48.580;7.756;2023-04-15T13:14:10;20.00;63.40
53272;DHT22;39160;48.580;7.756;2023-04-15T13:19:02;19.80;62.90
53272;DHT22;39160;48.580;7.756;2023-04-15T13:23:53;20.20;62.50
53272;DHT22;39160;48.580;7.756;2023-04-15T13:28:44;20.40;61.90
53272;DHT22;39160;48.580;7.756;2023-04-15T13:33:35;21.30;61.10
53272;DHT22;39160;48.580;7.756;2023-04-15T13:38:26;21.50;61.30
53272;DHT22;39160;48.580;7.756;2023-04-15T13:43:16;20.60;60.90
53272;DHT22;39160;48.580;7.756;2023-04-15T13:48:07;22.30;60.10
53272;DHT22;39160;48.580;7.756;2023-04-15T13:52:58;24.10;58.80
53272;DHT22;39160;48.580;7.756;2023-04-15T13:57:48;22.60;58.90
53272;DHT22;39160;48.580;7.756;2023-04-15T14:02:40;21.80;58.70
53272;DHT22;39160;48.580;7.756;2023-04-15T14:07:31;20.40;59.20
53272;DHT22;39160;48.580;7.756;2023-04-15T14:12:22;19.40;59.40
53272;DHT22;39160;48.580;7.756;2023-04-15T14:17:13;19.20;59.30
53272;DHT22;39160;48.580;7.756;2023-04-15T14:22:03;19.80;58.80
53272;DHT22;39160;48.580;7.756;2023-04-15T14:26:54;20.20;58.80
53272;DHT22;39160;48.580;7.756;2023-04-15T14:31:46;20.10;58.90
53272;DHT22;39160;48.580;7.756;2023-04-15T14:36:38;20.30;58.90
53272;DHT22;39160;48.580;7.756;2023-04-15T14:41:29;19.60;58.90
53272;DHT22;39160;48.580;7.756;2023-04-15T14:46:19;19.60;58.90
53272;DHT22;39160;48.580;7.756;2023-04-15T14:51:10;19.30;58.70
53272;DHT22;39160;48.580;7.756;2023-04-15T14:56:01;18.60;59.20
53272;DHT22;39160;48.580;7.756;2023-04-15T15:00:51;18.30;59.90
53272;DHT22;39160;48.580;7.756;2023-04-15T15:05:44;18.20;59.90
53272;DHT22;39160;48.580;7.756;2023-04-15T15:10:36;18.20;60.00
53272;DHT22;39160;48.580;7.756;2023-04-15T15:15:26;18.40;59.70
53272;DHT22;39160;48.580;7.756;2023-04-15T15:20:17;18.70;59.30
53272;DHT22;39160;48.580;7.756;2023-04-15T15:25:08;18.60;58.90
53272;DHT22;39160;48.580;7.756;2023-04-15T15:29:59;18.30;59.00
53272;DHT22;39160;48.580;7.756;2023-04-15T15:34:49;17.90;58.60
53272;DHT22;39160;48.580;7.756;2023-04-15T15:39:40;18.00;58.10
53272;DHT22;39160;48.580;7.756;2023-04-15T15:44:31;18.40;57.60
53272;DHT22;39160;48.580;7.756;2023-04-15T15:49:23;18.60;56.70
53272;DHT22;39160;48.580;7.756;2023-04-15T15:54:15;19.00;56.20
53272;DHT22;39160;48.580;7.756;2023-04-15T15:59:05;18.90;55.70
53272;DHT22;39160;48.580;7.756;2023-04-15T16:03:56;18.10;55.60
53272;DHT22;39160;48.580;7.756;2023-04-15T16:08:47;17.50;55.30
53272;DHT22;39160;48.580;7.756;2023-04-15T16:13:37;17.30;54.80
53272;DHT22;39160;48.580;7.756;2023-04-15T16:18:28;17.20;54.30
53272;DHT22;39160;48.580;7.756;2023-04-15T16:23:18;17.00;54.10
53272;DHT22;39160;48.580;7.756;2023-04-15T16:28:10;16.90;54.20
53272;DHT22;39160;48.580;7.756;2023-04-15T16:33:01;16.90;54.20
53272;DHT22;39160;48.580;7.756;2023-04-15T16:37:51;16.80;54.50
53272;DHT22;39160;48.580;7.756;2023-04-15T16:42:42;16.80;54.90
53272;DHT22;39160;48.580;7.756;2023-04-15T16:47:32;16.70;55.30
53272;DHT22;39160;48.580;7.756;2023-04-15T16:52:23;16.50;56.00
53272;DHT22;39160;48.580;7.756;2023-04-15T16:57:14;16.40;56.50
53272;DHT22;39160;48.580;7.756;2023-04-15T17:02:04;16.30;56.70
53272;DHT22;39160;48.580;7.756;2023-04-15T17:06:55;16.20;56.90
53272;DHT22;39160;48.580;7.756;2023-04-15T17:11:47;16.30;57.20
53272;DHT22;39160;48.580;7.756;2023-04-15T17:16:37;16.20;57.60
53272;DHT22;39160;48.580;7.756;2023-04-15T17:21:28;16.10;58.30
53272;DHT22;39160;48.580;7.756;2023-04-15T17:26:19;16.00;59.30
53272;DHT22;39160;48.580;7.756;2023-04-15T17:31:09;16.00;60.70
53272;DHT22;39160;48.580;7.756;2023-04-15T17:36:00;15.80;61.80
53272;DHT22;39160;48.580;7.756;2023-04-15T17:40:51;15.70;62.80
53272;DHT22;39160;48.580;7.756;2023-04-15T17:45:42;15.60;63.30
53272;DHT22;39160;48.580;7.756;2023-04-15T17:50:33;15.60;63.90
53272;DHT22;39160;48.580;7.756;2023-04-15T17:55:23;15.60;64.30
53272;DHT22;39160;48.580;7.756;2023-04-15T18:00:15;15.50;64.70
53272;DHT22;39160;48.580;7.756;2023-04-15T18:05:07;15.50;65.40
53272;DHT22;39160;48.580;7.756;2023-04-15T18:09:57;15.20;67.40
53272;DHT22;39160;48.580;7.756;2023-04-15T18:14:48;14.90;68.90
53272;DHT22;39160;48.580;7.756;2023-04-15T18:19:39;14.70;69.90
53272;DHT22;39160;48.580;7.756;2023-04-15T18:24:30;14.70;70.50
53272;DHT22;39160;48.580;7.756;2023-04-15T18:29:20;14.70;70.60
53272;DHT22;39160;48.580;7.756;2023-04-15T18:34:14;14.50;71.70
53272;DHT22;39160;48.580;7.756;2023-04-15T18:39:04;14.40;72.60
53272;DHT22;39160;48.580;7.756;2023-04-15T18:43:55;14.30;73.30
53272;DHT22;39160;48.580;7.756;2023-04-15T18:48:45;14.60;73.20
53272;DHT22;39160;48.580;7.756;2023-04-15T18:53:36;14.80;73.00
53272;DHT22;39160;48.580;7.756;2023-04-15T18:58:27;14.80;73.60
53272;DHT22;39160;48.580;7.756;2023-04-15T19:03:18;14.70;74.20
53272;DHT22;39160;48.580;7.756;2023-04-15T19:08:09;14.50;74.80
53272;DHT22;39160;48.580;7.756;2023-04-15T19:13:00;14.50;75.20
53272;DHT22;39160;48.580;7.756;2023-04-15T19:17:51;14.50;75.70
53272;DHT22;39160;48.580;7.756;2023-04-15T19:22:41;14.20;77.60
53272;DHT22;39160;48.580;7.756;2023-04-15T19:27:32;14.20;77.90
53272;DHT22;39160;48.580;7.756;2023-04-15T19:32:23;14.20;78.70
53272;DHT22;39160;48.580;7.756;2023-04-15T19:37:14;14.10;79.70
53272;DHT22;39160;48.580;7.756;2023-04-15T19:42:05;13.90;80.50
53272;DHT22;39160;48.580;7.756;2023-04-15T19:46:56;14.00;81.00
53272;DHT22;39160;48.580;7.756;2023-04-15T19:51:47;13.80;81.50
53272;DHT22;39160;48.580;7.756;2023-04-15T19:56:39;13.80;82.20
53272;DHT22;39160;48.580;7.756;2023-04-15T20:01:30;13.70;82.80
53272;DHT22;39160;48.580;7.756;2023-04-15T20:06:21;13.70;83.30
53272;DHT22;39160;48.580;7.756;2023-04-15T20:11:12;13.80;83.50
53272;DHT22;39160;48.580;7.756;2023-04-15T20:16:03;13.60;84.20
53272;DHT22;39160;48.580;7.756;2023-04-15T20:20:56;13.60;84.60
53272;DHT22;39160;48.580;7.756;2023-04-15T20:25:47;13.80;85.10
53272;DHT22;39160;48.580;7.756;2023-04-15T20:30:38;13.80;85.40
53272;DHT22;39160;48.580;7.756;2023-04-15T20:35:28;13.60;86.30
53272;DHT22;39160;48.580;7.756;2023-04-15T20:40:20;13.50;86.90
53272;DHT22;39160;48.580;7.756;2023-04-15T20:45:11;13.40;87.60
53272;DHT22;39160;48.580;7.756;2023-04-15T20:50:02;13.40;88.30
53272;DHT22;39160;48.580;7.756;2023-04-15T20:54:53;13.40;88.80
53272;DHT22;39160;48.580;7.756;2023-04-15T20:59:43;13.40;89.90
53272;DHT22;39160;48.580;7.756;2023-04-15T21:04:34;13.30;90.10
53272;DHT22;39160;48.580;7.756;2023-04-15T21:09:25;13.30;90.30
53272;DHT22;39160;48.580;7.756;2023-04-15T21:14:16;13.20;90.50
53272;DHT22;39160;48.580;7.756;2023-04-15T21:19:06;13.20;90.70
53272;DHT22;39160;48.580;7.756;2023-04-15T21:24:00;13.10;91.00
53272;DHT22;39160;48.580;7.756;2023-04-15T21:28:51;12.90;91.20
53272;DHT22;39160;48.580;7.756;2023-04-15T21:33:42;12.70;91.40
53272;DHT22;39160;48.580;7.756;2023-04-15T21:38:32;12.70;91.60
53272;DHT22;39160;48.580;7.756;2023-04-15T21:43:23;12.80;91.60
53272;DHT22;39160;48.580;7.756;2023-04-15T21:48:15;12.50;92.10
53272;DHT22;39160;48.580;7.756;2023-04-15T21:53:07;12.50;92.30
53272;DHT22;39160;48.580;7.756;2023-04-15T21:57:57;12.30;92.50
53272;DHT22;39160;48.580;7.756;2023-04-15T22:02:48;12.50;92.70
53272;DHT22;39160;48.580;7.756;2023-04-15T22:07:39;12.20;93.10
53272;DHT22;39160;48.580;7.756;2023-04-15T22:12:30;12.10;93.50
53272;DHT22;39160;48.580;7.756;2023-04-15T22:17:21;12.10;93.70
53272;DHT22;39160;48.580;7.756;2023-04-15T22:22:12;12.10;93.80
53272;DHT22;39160;48.580;7.756;2023-04-15T22:27:02;12.10;93.90
53272;DHT22;39160;48.580;7.756;2023-04-15T22:31:53;12.20;94.10
53272;DHT22;39160;48.580;7.756;2023-04-15T22:36:44;12.30;94.20
53272;DHT22;39160;48.580;7.756;2023-04-15T22:41:34;11.90;94.70
53272;DHT22;39160;48.580;7.756;2023-04-15T22:46:25;12.20;94.70
53272;DHT22;39160;48.580;7.756;2023-04-15T22:51:20;11.80;95.00
53272;DHT22;39160;48.580;7.756;2023-04-15T22:56:11;12.00;95.30
53272;DHT22;39160;48.580;7.756;2023-04-15T23:01:02;12.00;95.50
53272;DHT22;39160;48.580;7.756;2023-04-15T23:05:52;12.00;95.50
53272;DHT22;39160;48.580;7.756;2023-04-15T23:10:43;11.90;95.60
53272;DHT22;39160;48.580;7.756;2023-04-15T23:15:34;11.80;96.00
53272;DHT22;39160;48.580;7.756;2023-04-15T23:20:25;11.70;96.30
53272;DHT22;39160;48.580;7.756;2023-04-15T23:25:15;11.90;96.50
53272;DHT22;39160;48.580;7.756;2023-04-15T23:30:06;11.80;96.90
53272;DHT22;39160;48.580;7.756;2023-04-15T23:34:57;11.80;97.20
53272;DHT22;39160;48.580;7.756;2023-04-15T23:39:48;11.80;97.60
53272;DHT22;39160;48.580;7.756;2023-04-15T23:44:38;11.70;97.90
53272;DHT22;39160;48.580;7.756;2023-04-15T23:49:29;11.60;98.00
53272;DHT22;39160;48.580;7.756;2023-04-15T23:54:20;11.50;98.20
53272;DHT22;39160;48.580;7.756;2023-04-15T23:59:10;11.40;98.70
